Latest Weather Observations for Hay Airport

IDN60801

Issued at 3:35 pm EDT Saturday 29 November 2014 (issued every 30 minutes, with the page automatically refreshed every 10 minutes)

About weather observations | Map of weather stations | Latest weather observations for NSW | Other Formats
Station Details ID: 075019 Name: HAY AIRPORT AWS Lat: -34.54 Lon: 144.83 Height: 92.0 m
Data from the previous 72 hours. | See also: Recent months for locations in New South Wales
Date/Time
EDT
Temp
°C
App
Temp
°C
Dew
Point
Rel
Hum
%
Delta-T
°C
Wind Press
QNH
hPa
Press
MSL
hPa
Rain
since 9 am
mm
Dir
 
Spd
km/h
Gust
km/h
Spd
kts
Gust
kts
29/03:30pm 36.5 31.7 4.7 14 17.2 NNE 19 26 10 14 1007.6 1007.3 0.0
29/03:00pm 34.9 31.4 5.4 16 16.0 N 13 19 7 10 1008.1 1007.8 0.0
29/02:30pm 37.3 34.8 8.2 17 16.6 NNW 11 15 6 8 1008.7 1008.4 0.0
29/02:00pm 35.0 30.7 7.1 18 15.5 NNW 19 30 10 16 1009.0 1008.7 0.0
29/01:30pm 34.2 29.2 6.5 18 15.2 N 22 39 12 21 1009.6 1009.3 0.0
29/01:00pm 35.3 31.7 8.2 19 15.3 NNE 17 30 9 16 1010.0 1009.7 0.0
29/12:30pm 35.1 30.8 7.2 18 15.5 NNW 19 30 10 16 1010.6 1010.4 0.0
29/12:00pm 35.1 29.9 7.2 18 15.5 N 24 35 13 19 1011.1 1010.9 0.0
29/11:30am 33.6 28.7 8.3 21 14.2 N 24 43 13 23 1011.5 1011.2 0.0
29/11:00am 32.8 27.9 8.3 22 13.7 N 24 35 13 19 1012.0 1011.7 0.0
29/10:30am 31.7 26.9 8.7 24 12.9 NNE 24 33 13 18 1012.3 1012.0 0.0
29/10:00am 30.8 25.1 8.5 25 12.4 NNE 28 35 15 19 1012.5 1012.2 0.0
29/09:30am 29.8 24.1 8.2 26 11.9 NNE 28 35 15 19 1012.8 1012.5 0.0
29/09:00am 28.5 22.5 8.7 29 10.9 NNE 30 39 16 21 1013.0 1012.7 0.0
29/08:30am 26.8 20.7 8.3 31 10.0 NNE 30 43 16 23 1013.1 1012.8 0.0
29/08:00am 25.2 18.8 6.9 31 9.6 NE 30 39 16 21 1012.7 1012.4 0.0
29/07:54am 25.0 19.0 7.2 32 9.4 NE 28 39 15 21 1012.8 1012.5 0.0
29/07:30am 22.0 19.1 6.7 37 7.8 E 11 17 6 9 1013.0 1012.7 0.0
29/07:00am 19.2 17.3 6.7 44 6.3 SE 6 9 3 5 1013.1 1012.8 0.0
29/06:30am 17.3 14.5 6.8 50 5.2 SE 11 15 6 8 1012.8 1012.5 0.0
29/06:00am 17.0 13.7 6.5 50 5.2 SE 13 15 7 8 1012.8 1012.5 0.0
29/05:30am 17.0 14.3 7.4 53 4.8 S 11 13 6 7 1012.6 1012.3 0.0
29/05:00am 16.3 14.3 6.4 52 4.9 SSE 6 7 3 4 1012.4 1012.1 0.0
29/04:30am 17.3 14.0 6.2 48 5.5 ESE 13 17 7 9 1012.2 1011.9 0.0
29/04:00am 17.2 14.7 6.7 50 5.2 SSE 9 11 5 6 1012.3 1012.0 0.0
29/03:30am 17.5 15.6 6.7 49 5.4 SE 6 9 3 5 1012.2 1011.9 0.0
29/03:00am 18.8 16.3 6.6 45 6.1 E 9 11 5 6 1012.4 1012.1 0.0
29/02:30am 19.1 16.5 6.2 43 6.4 E 9 11 5 6 1012.5 1012.2 0.0
29/02:00am 19.5 16.4 5.6 40 6.9 SE 11 15 6 8 1012.7 1012.4 0.0
29/01:30am 20.2 17.4 5.1 37 7.4 SE 9 11 5 6 1013.0 1012.7 0.0
29/01:00am 20.8 18.4 4.4 34 8.0 SE 6 7 3 4 1013.3 1013.0 0.0
29/12:30am 20.3 17.8 3.9 34 7.9 ESE 6 7 3 4 1013.5 1013.2 0.0
29/12:00am 22.0 19.3 3.6 30 8.9 SSW 7 9 4 5 1013.7 1013.4 0.0
 
Date/Time
EDT
Temp
°C
App
Temp
°C
Dew
Point
Rel
Hum
%
Delta-T
°C
Wind Press
QNH
hPa
Press
MSL
hPa
Rain
since 9 am
mm
Dir
 
Spd
km/h
Gust
km/h
Spd
kts
Gust
kts
28/11:30pm 22.3 19.6 2.9 28 9.3 WSW 6 15 3 8 1013.8 1013.5 0.0
28/11:00pm 22.4 19.1 2.5 27 9.4 ESE 9 9 5 5 1014.0 1013.7 0.0
28/10:30pm 23.8 19.9 3.2 26 10.0 SSW 13 15 7 8 1014.0 1013.7 0.0
28/10:00pm 24.8 22.0 2.9 24 10.7 S 7 9 4 5 1014.0 1013.7 0.0
28/09:30pm 25.2 22.1 1.3 21 11.3 SSE 7 9 4 5 1013.7 1013.4 0.0
28/09:00pm 27.2 25.6 2.3 20 12.2 CALM 0 0 0 0 1013.6 1013.3 0.0
28/08:30pm 28.8 27.1 2.1 18 13.2 CALM 0 0 0 0 1013.5 1013.2 0.0
28/08:00pm 30.8 29.0 1.2 15 14.6 CALM 0 0 0 0 1013.3 1013.0 0.0
28/07:30pm 31.6 29.0 0.9 14 15.1 NE 4 9 2 5 1013.3 1013.0 0.0
28/07:00pm 32.2 29.1 0.3 13 15.6 E 6 13 3 7 1013.1 1012.8 0.0
28/06:30pm 32.3 30.0 0.4 13 15.6 N 2 9 1 5 1013.0 1012.7 0.0
28/06:00pm 32.5 29.3 0.6 13 15.7 E 7 13 4 7 1013.1 1012.8 0.0
28/05:30pm 32.6 28.2 0.6 13 15.8 SE 13 20 7 11 1013.4 1013.1 0.0
28/05:00pm 33.0 29.4 0.9 13 15.9 NW 9 20 5 11 1013.6 1013.3 0.0
28/04:30pm 32.6 29.7 1.7 14 15.5 NNW 6 11 3 6 1014.1 1013.8 0.0
28/04:00pm 33.1 29.1 3.0 15 15.5 N 13 20 7 11 1014.5 1014.2 0.0
28/03:30pm 32.6 29.7 4.4 17 14.8 E 9 15 5 8 1014.8 1014.5 0.0
28/03:00pm 32.2 30.1 5.7 19 14.2 SSE 6 15 3 8 1015.3 1015.0 0.0
28/02:30pm 31.5 28.6 6.5 21 13.5 E 11 19 6 10 1015.7 1015.4 0.0
28/02:00pm 30.7 27.8 6.6 22 13.0 N 11 20 6 11 1016.3 1016.0 0.0
28/01:30pm 30.5 28.3 9.4 27 11.9 E 11 19 6 10 1016.9 1016.6 0.0
28/01:00pm 30.0 28.6 9.5 28 11.5 NW 7 17 4 9 1017.3 1017.0 0.0
28/12:30pm 29.2 27.8 10.8 32 10.5 NW 9 15 5 8 1017.9 1017.6 0.0
28/12:00pm 27.9 26.5 11.0 35 9.6 NNE 9 20 5 11 1018.3 1018.0 0.0
28/11:30am 27.4 25.9 10.6 35 9.5 ENE 9 19 5 10 1018.6 1018.3 0.0
28/11:00am 26.8 24.7 11.3 38 8.8 N 13 19 7 10 1018.8 1018.5 0.0
28/10:30am 25.9 23.2 11.6 40 8.2 N 17 22 9 12 1019.1 1018.8 0.0
28/10:00am 25.5 22.2 11.7 42 7.9 NNE 20 30 11 16 1019.2 1018.9 0.0
28/09:30am 24.4 20.3 11.4 44 7.3 NNE 24 32 13 17 1019.2 1018.9 0.0
28/09:00am 24.4 20.4 11.7 45 7.2 NNE 24 33 13 18 1019.2 1018.9 0.0
28/08:30am 22.4 19.0 11.2 49 6.2 NE 20 28 11 15 1019.1 1018.8 0.0
28/08:00am 19.8 17.1 10.2 54 5.2 ENE 15 20 8 11 1019.1 1018.8 0.0
28/07:30am 17.1 14.4 9.0 59 4.2 E 13 17 7 9 1018.8 1018.5 0.0
28/07:00am 15.0 13.0 8.5 65 3.3 SE 9 13 5 7 1018.7 1018.4 0.0
28/06:30am 13.3 11.1 8.0 70 2.6 SSE 9 11 5 6 1018.6 1018.3 0.0
28/06:00am 12.9 10.3 7.8 71 2.5 SSE 11 13 6 7 1018.4 1018.1 0.0
28/05:30am 13.5 10.5 7.9 69 2.8 SSE 13 17 7 9 1018.1 1017.8 0.0
28/05:00am 13.9 10.9 7.9 67 3.0 SSE 13 17 7 9 1018.0 1017.7 0.0
28/04:30am 13.8 11.1 7.3 65 3.2 SSE 11 15 6 8 1017.7 1017.4 0.0
28/04:00am 14.1 11.3 6.9 62 3.5 SSE 11 13 6 7 1017.6 1017.3 0.0
28/03:30am 14.8 11.7 7.1 60 3.8 SSE 13 19 7 10 1017.7 1017.4 0.0
28/03:00am 15.5 12.0 7.0 57 4.2 S 15 19 8 10 1017.6 1017.3 0.0
28/02:30am 15.7 12.1 6.7 55 4.4 SSE 15 20 8 11 1017.9 1017.6 0.0
28/02:00am 16.3 12.6 6.4 52 4.8 S 15 19 8 10 1018.0 1017.7 0.0
28/01:30am 17.0 12.9 6.2 49 5.3 S 17 20 9 11 1018.1 1017.8 0.0
28/01:00am 17.5 13.6 5.4 45 5.9 S 15 20 8 11 1018.3 1018.0 0.0
28/12:30am 18.2 13.8 4.7 41 6.5 S 17 20 9 11 1018.5 1018.2 0.0
28/12:00am 19.0 13.9 3.2 35 7.4 S 19 24 10 13 1018.8 1018.5 0.0
 
Date/Time
EDT
Temp
°C
App
Temp
°C
Dew
Point
Rel
Hum
%
Delta-T
°C
Wind Press
QNH
hPa
Press
MSL
hPa
Rain
since 9 am
mm
Dir
 
Spd
km/h
Gust
km/h
Spd
kts
Gust
kts
27/11:30pm 19.2 13.7 0.3 28 8.4 S 19 22 10 12 1018.8 1018.5 0.0
27/11:00pm 18.9 14.1 0.5 29 8.1 S 15 17 8 9 1018.8 1018.5 0.0
27/10:30pm 19.2 14.5 1.2 30 8.1 SSW 15 17 8 9 1018.8 1018.5 0.0
27/10:00pm 20.0 15.2 -0.1 26 8.9 S 15 17 8 9 1018.8 1018.5 0.0
27/09:30pm 23.0 18.1 -0.5 21 10.6 S 15 19 8 10 1018.5 1018.2 0.0
27/09:00pm 23.4 18.7 -1.5 19 11.0 S 13 17 7 9 1018.2 1017.9 0.0
27/08:30pm 24.8 20.1 -1.9 17 11.9 S 13 17 7 9 1018.1 1017.8 0.0
27/08:00pm 26.4 20.8 -3.2 14 13.0 S 17 24 9 13 1017.8 1017.5 0.0
27/07:30pm 27.6 21.6 -3.3 13 13.7 SSE 19 26 10 14 1017.7 1017.4 0.0
27/07:00pm 28.2 22.5 -3.9 12 14.1 SSE 17 26 9 14 1017.6 1017.3 0.0
27/06:30pm 28.5 22.4 -3.6 12 14.3 S 19 24 10 13 1017.4 1017.1 0.0
27/06:00pm 28.8 22.1 -4.6 11 14.6 S 22 28 12 15 1017.3 1017.0 0.0
27/05:30pm 28.9 22.3 -3.3 12 14.4 SSE 22 32 12 17 1017.4 1017.1 0.0
27/05:00pm 28.8 20.8 -5.8 10 14.8 S 28 35 15 19 1017.8 1017.5 0.0
27/04:30pm 29.4 22.4 -6.7 9 15.3 S 22 33 12 18 1018.0 1017.7 0.0
27/04:00pm 28.2 21.7 -7.6 9 14.8 S 19 30 10 16 1018.6 1018.3 0.0
27/03:30pm 28.0 21.1 -6.4 10 14.5 S 22 32 12 17 1018.8 1018.5 0.0
27/03:00pm 28.0 21.9 -4.0 12 14.0 SSE 19 26 10 14 1019.1 1018.8 0.0
27/02:30pm 27.4 19.3 -6.9 10 14.2 SSW 28 32 15 17 1019.5 1019.2 0.0
27/02:00pm 26.7 20.8 -2.1 15 12.9 S 19 28 10 15 1019.8 1019.6 0.0
27/01:30pm 25.9 19.4 -2.7 15 12.7 S 22 28 12 15 1020.2 1020.0 0.0
27/01:00pm 25.5 19.4 0.2 19 11.7 SSW 22 35 12 19 1020.6 1020.4 0.0
27/12:30pm 24.7 18.7 0.9 21 11.2 SSW 22 33 12 18 1021.0 1020.8 0.0
27/12:00pm 23.1 17.4 2.6 26 9.8 SSW 22 32 12 17 1021.4 1021.2 0.0
27/11:30am 23.1 18.1 3.6 28 9.5 SSW 19 32 10 17 1021.8 1021.6 0.0
27/11:00am 21.6 16.3 5.1 34 8.2 SSW 22 30 12 16 1022.0 1021.8 0.0
27/10:30am 20.9 16.2 6.1 38 7.5 SSW 20 26 11 14 1022.1 1021.9 0.0
27/10:00am 19.5 15.6 6.9 44 6.4 SSW 17 22 9 12 1022.2 1022.0 0.0
27/09:30am 18.3 14.9 7.7 50 5.4 S 15 20 8 11 1022.4 1022.2 0.0
27/09:00am 16.7 12.5 7.6 55 4.6 S 19 24 10 13 1022.4 1022.2 0.0
27/08:30am 15.6 11.2 7.4 58 4.1 SSE 20 26 11 14 1022.3 1022.1 0.0
27/08:00am 15.3 10.2 7.8 61 3.7 S 24 32 13 17 1022.0 1021.8 0.0
27/07:30am 14.2 9.1 7.5 64 3.3 S 24 35 13 19 1021.7 1021.5 0.0
27/07:00am 13.4 9.1 8.0 70 2.7 SSE 20 30 11 16 1021.5 1021.3 0.0
27/06:30am 12.9 9.8 8.8 76 2.1 S 15 19 8 10 1021.3 1021.1 0.0
27/06:00am 12.7 9.3 9.0 78 1.9 S 17 20 9 11 1020.9 1020.7 0.0
27/05:30am 13.1 9.0 8.6 74 2.3 S 20 26 11 14 1020.7 1020.5 0.0
27/05:00am 13.7 9.6 8.7 72 2.5 S 20 26 11 14 1020.4 1020.2 0.0
27/04:30am 14.3 10.3 9.1 71 2.7 S 20 32 11 17 1020.1 1019.9 0.0
27/04:00am 14.7 10.8 9.5 71 2.7 SSE 20 28 11 15 1019.9 1019.7 0.0
27/03:30am 15.3 11.4 9.4 68 3.1 S 20 28 11 15 1019.7 1019.4 0.0
27/03:00am 15.8 12.1 9.5 66 3.3 S 19 26 10 14 1019.7 1019.4 0.0
27/02:30am 16.2 12.4 9.2 63 3.6 SSE 19 24 10 13 1019.8 1019.6 0.0
27/02:00am 16.3 13.2 9.0 62 3.8 SSE 15 20 8 11 1020.0 1019.8 0.0
27/01:30am 16.8 14.1 8.8 59 4.1 SE 13 17 7 9 1020.2 1020.0 0.0
27/01:00am 17.5 14.1 9.2 58 4.3 SSE 17 22 9 12 1020.3 1020.1 0.0
27/12:30am 18.1 14.3 8.9 55 4.8 SSE 19 24 10 13 1020.3 1020.1 0.0
27/12:00am 19.0 14.5 8.6 51 5.4 SSE 22 32 12 17 1020.3 1020.1 0.0
 
Date/Time
EDT
Temp
°C
App
Temp
°C
Dew
Point
Rel
Hum
%
Delta-T
°C
Wind Press
QNH
hPa
Press
MSL
hPa
Rain
since 9 am
mm
Dir
 
Spd
km/h
Gust
km/h
Spd
kts
Gust
kts
26/11:30pm 19.1 15.6 7.2 46 6.0 S 15 20 8 11 1020.2 1020.0 0.0
26/11:00pm 19.3 16.4 6.4 43 6.4 S 11 15 6 8 1019.8 1019.6 0.0
26/10:30pm 19.5 16.5 5.9 41 6.8 S 11 15 6 8 1019.7 1019.4 0.0
26/10:00pm 19.5 16.5 5.9 41 6.7 S 11 13 6 7 1019.5 1019.2 0.0
26/09:30pm 20.5 17.1 5.7 38 7.4 S 13 15 7 8 1019.2 1018.9 0.0
26/09:00pm 20.7 17.7 4.3 34 7.9 S 9 11 5 6 1019.0 1018.7 0.0
26/08:30pm 22.6 18.3 3.2 28 9.3 S 15 19 8 10 1018.8 1018.5 0.0
26/08:00pm 23.9 18.5 2.7 25 10.2 S 20 28 11 15 1018.6 1018.3 0.0
26/07:30pm 24.8 18.5 3.5 25 10.5 SSW 26 33 14 18 1018.4 1018.1 0.0
26/07:00pm 25.6 19.4 2.3 22 11.3 SSW 24 32 13 17 1018.1 1017.8 0.0
26/06:30pm 26.1 19.9 2.1 21 11.6 SSW 24 30 13 16 1017.8 1017.5 0.0
26/06:00pm 26.4 19.7 1.7 20 11.9 SSW 26 37 14 20 1017.8 1017.5 0.0
26/05:30pm 26.7 20.8 1.9 20 12.0 SSW 22 30 12 16 1017.9 1017.6 0.0
26/05:00pm 26.9 21.1 2.1 20 12.0 SSW 22 33 12 18 1017.8 1017.5 0.0
26/04:30pm 26.8 20.8 3.3 22 11.7 SW 24 35 13 19 1018.0 1017.7 0.0
26/04:00pm 26.4 20.0 3.0 22 11.5 SW 26 39 14 21 1018.1 1017.8 0.0

Other Formats:

Comma delimited format used in spreadsheet applications
http://www.bom.gov.au/fwo/IDN60801/IDN60801.94702.axf

JavaScript Object Notation format (JSON) in row-major order
http://www.bom.gov.au/fwo/IDN60801/IDN60801.94702.json